sensor_id;sensor_type;location;lat;lon;timestamp;P1;durP1;ratioP1;P2;durP2;ratioP2
18808;SDS011;9532;54.322;10.116;2022-10-12T00:00:53;3.43;;;1.40;;
18808;SDS011;9532;54.322;10.116;2022-10-12T00:03:20;2.57;;;1.63;;
18808;SDS011;9532;54.322;10.116;2022-10-12T00:05:58;3.30;;;1.63;;
18808;SDS011;9532;54.322;10.116;2022-10-12T00:08:25;3.07;;;1.63;;
18808;SDS011;9532;54.322;10.116;2022-10-12T00:10:52;2.53;;;1.47;;
18808;SDS011;9532;54.322;10.116;2022-10-12T00:13:21;3.27;;;1.57;;
18808;SDS011;9532;54.322;10.116;2022-10-12T00:15:48;3.20;;;1.60;;
18808;SDS011;9532;54.322;10.116;2022-10-12T00:18:15;3.33;;;1.50;;
18808;SDS011;9532;54.322;10.116;2022-10-12T00:20:42;3.10;;;1.67;;
18808;SDS011;9532;54.322;10.116;2022-10-12T00:23:10;2.33;;;1.50;;
18808;SDS011;9532;54.322;10.116;2022-10-12T00:25:38;3.37;;;1.70;;
18808;SDS011;9532;54.322;10.116;2022-10-12T00:28:06;3.07;;;1.40;;
18808;SDS011;9532;54.322;10.116;2022-10-12T00:30:38;2.60;;;1.47;;
18808;SDS011;9532;54.322;10.116;2022-10-12T00:33:06;2.47;;;1.50;;
18808;SDS011;9532;54.322;10.116;2022-10-12T00:35:33;2.57;;;1.50;;
18808;SDS011;9532;54.322;10.116;2022-10-12T00:38:00;3.23;;;1.60;;
18808;SDS011;9532;54.322;10.116;2022-10-12T00:40:26;3.17;;;1.60;;
18808;SDS011;9532;54.322;10.116;2022-10-12T00:42:53;3.03;;;1.50;;
18808;SDS011;9532;54.322;10.116;2022-10-12T00:45:20;2.10;;;1.30;;
18808;SDS011;9532;54.322;10.116;2022-10-12T00:47:54;2.90;;;1.20;;
18808;SDS011;9532;54.322;10.116;2022-10-12T00:50:25;2.97;;;1.40;;
18808;SDS011;9532;54.322;10.116;2022-10-12T00:52:57;2.30;;;1.60;;
18808;SDS011;9532;54.322;10.116;2022-10-12T00:55:27;4.10;;;1.53;;
18808;SDS011;9532;54.322;10.116;2022-10-12T00:57:59;2.77;;;1.47;;
18808;SDS011;9532;54.322;10.116;2022-10-12T01:00:26;3.30;;;1.40;;
18808;SDS011;9532;54.322;10.116;2022-10-12T01:02:55;2.57;;;1.67;;
18808;SDS011;9532;54.322;10.116;2022-10-12T01:05:22;3.90;;;1.27;;
18808;SDS011;9532;54.322;10.116;2022-10-12T01:07:50;3.77;;;1.67;;
18808;SDS011;9532;54.322;10.116;2022-10-12T01:10:17;2.80;;;1.57;;
18808;SDS011;9532;54.322;10.116;2022-10-12T01:12:45;2.17;;;1.40;;
18808;SDS011;9532;54.322;10.116;2022-10-12T01:15:14;3.40;;;1.73;;
18808;SDS011;9532;54.322;10.116;2022-10-12T01:17:44;2.50;;;1.40;;
18808;SDS011;9532;54.322;10.116;2022-10-12T01:23:30;3.27;;;1.50;;
18808;SDS011;9532;54.322;10.116;2022-10-12T01:26:15;2.43;;;1.40;;
18808;SDS011;9532;54.322;10.116;2022-10-12T01:29:08;2.30;;;1.33;;
18808;SDS011;9532;54.322;10.116;2022-10-12T01:31:49;1.93;;;1.20;;
18808;SDS011;9532;54.322;10.116;2022-10-12T01:34:25;3.00;;;1.40;;
18808;SDS011;9532;54.322;10.116;2022-10-12T01:36:59;2.30;;;1.10;;
18808;SDS011;9532;54.322;10.116;2022-10-12T01:39:31;2.00;;;1.33;;
18808;SDS011;9532;54.322;10.116;2022-10-12T01:42:05;2.73;;;1.53;;
18808;SDS011;9532;54.322;10.116;2022-10-12T01:44:35;3.20;;;1.30;;
18808;SDS011;9532;54.322;10.116;2022-10-12T01:47:04;3.17;;;1.50;;
18808;SDS011;9532;54.322;10.116;2022-10-12T01:49:31;1.87;;;1.30;;
18808;SDS011;9532;54.322;10.116;2022-10-12T01:55:11;2.13;;;1.40;;
18808;SDS011;9532;54.322;10.116;2022-10-12T01:57:51;2.63;;;1.50;;
18808;SDS011;9532;54.322;10.116;2022-10-12T02:00:24;2.30;;;1.40;;
18808;SDS011;9532;54.322;10.116;2022-10-12T02:02:56;2.20;;;1.23;;
18808;SDS011;9532;54.322;10.116;2022-10-12T02:05:31;2.87;;;1.30;;
18808;SDS011;9532;54.322;10.116;2022-10-12T02:08:03;2.67;;;1.33;;
18808;SDS011;9532;54.322;10.116;2022-10-12T02:10:36;2.00;;;1.40;;
18808;SDS011;9532;54.322;10.116;2022-10-12T02:13:09;2.00;;;1.27;;
18808;SDS011;9532;54.322;10.116;2022-10-12T02:15:38;2.17;;;1.37;;
18808;SDS011;9532;54.322;10.116;2022-10-12T02:18:10;1.67;;;1.10;;
18808;SDS011;9532;54.322;10.116;2022-10-12T02:20:40;2.23;;;1.30;;
18808;SDS011;9532;54.322;10.116;2022-10-12T02:23:08;1.90;;;1.23;;
18808;SDS011;9532;54.322;10.116;2022-10-12T02:25:36;2.27;;;1.30;;
18808;SDS011;9532;54.322;10.116;2022-10-12T02:28:06;2.80;;;1.30;;
18808;SDS011;9532;54.322;10.116;2022-10-12T02:30:36;3.03;;;1.47;;
18808;SDS011;9532;54.322;10.116;2022-10-12T02:33:12;2.83;;;1.40;;
18808;SDS011;9532;54.322;10.116;2022-10-12T02:35:45;2.90;;;1.27;;
18808;SDS011;9532;54.322;10.116;2022-10-12T02:38:17;2.40;;;1.13;;
18808;SDS011;9532;54.322;10.116;2022-10-12T02:40:48;2.33;;;1.37;;
18808;SDS011;9532;54.322;10.116;2022-10-12T02:43:20;3.10;;;1.23;;
18808;SDS011;9532;54.322;10.116;2022-10-12T02:45:51;1.60;;;1.13;;
18808;SDS011;9532;54.322;10.116;2022-10-12T02:48:22;1.63;;;1.00;;
18808;SDS011;9532;54.322;10.116;2022-10-12T02:50:52;1.50;;;1.00;;
18808;SDS011;9532;54.322;10.116;2022-10-12T02:53:22;1.23;;;1.00;;
18808;SDS011;9532;54.322;10.116;2022-10-12T02:55:51;1.77;;;1.07;;
18808;SDS011;9532;54.322;10.116;2022-10-12T02:58:20;2.30;;;1.60;;
18808;SDS011;9532;54.322;10.116;2022-10-12T03:00:47;1.87;;;1.33;;
18808;SDS011;9532;54.322;10.116;2022-10-12T03:03:14;1.43;;;1.00;;
18808;SDS011;9532;54.322;10.116;2022-10-12T03:05:42;1.70;;;1.30;;
18808;SDS011;9532;54.322;10.116;2022-10-12T03:08:10;1.47;;;1.00;;
18808;SDS011;9532;54.322;10.116;2022-10-12T03:10:37;1.73;;;0.80;;
18808;SDS011;9532;54.322;10.116;2022-10-12T03:13:04;2.00;;;1.13;;
18808;SDS011;9532;54.322;10.116;2022-10-12T03:15:31;2.73;;;1.30;;
18808;SDS011;9532;54.322;10.116;2022-10-12T03:17:58;2.80;;;1.30;;
18808;SDS011;9532;54.322;10.116;2022-10-12T03:20:24;1.90;;;1.23;;
18808;SDS011;9532;54.322;10.116;2022-10-12T03:22:53;2.23;;;1.20;;
18808;SDS011;9532;54.322;10.116;2022-10-12T03:25:20;2.10;;;1.30;;
18808;SDS011;9532;54.322;10.116;2022-10-12T03:27:47;1.40;;;1.00;;
18808;SDS011;9532;54.322;10.116;2022-10-12T03:30:15;1.47;;;1.00;;
18808;SDS011;9532;54.322;10.116;2022-10-12T03:32:42;1.30;;;0.87;;
18808;SDS011;9532;54.322;10.116;2022-10-12T03:35:09;1.83;;;1.17;;
18808;SDS011;9532;54.322;10.116;2022-10-12T03:37:36;1.70;;;0.90;;
18808;SDS011;9532;54.322;10.116;2022-10-12T03:40:05;1.73;;;1.20;;
18808;SDS011;9532;54.322;10.116;2022-10-12T03:42:34;1.30;;;0.90;;
18808;SDS011;9532;54.322;10.116;2022-10-12T03:45:00;1.97;;;1.10;;
18808;SDS011;9532;54.322;10.116;2022-10-12T03:47:27;2.13;;;1.17;;
18808;SDS011;9532;54.322;10.116;2022-10-12T03:49:54;1.93;;;1.30;;
18808;SDS011;9532;54.322;10.116;2022-10-12T03:52:21;1.43;;;1.00;;
18808;SDS011;9532;54.322;10.116;2022-10-12T03:54:48;1.70;;;0.90;;
18808;SDS011;9532;54.322;10.116;2022-10-12T03:57:17;1.30;;;1.00;;
18808;SDS011;9532;54.322;10.116;2022-10-12T03:59:43;3.13;;;1.13;;
18808;SDS011;9532;54.322;10.116;2022-10-12T04:02:10;2.20;;;1.07;;
18808;SDS011;9532;54.322;10.116;2022-10-12T04:04:38;1.70;;;1.00;;
18808;SDS011;9532;54.322;10.116;2022-10-12T04:07:05;2.03;;;1.20;;
18808;SDS011;9532;54.322;10.116;2022-10-12T04:09:32;1.50;;;1.20;;
18808;SDS011;9532;54.322;10.116;2022-10-12T04:12:00;2.27;;;1.40;;
18808;SDS011;9532;54.322;10.116;2022-10-12T04:14:28;1.47;;;0.93;;
18808;SDS011;9532;54.322;10.116;2022-10-12T04:16:55;1.47;;;1.00;;
18808;SDS011;9532;54.322;10.116;2022-10-12T04:19:22;1.43;;;1.03;;
18808;SDS011;9532;54.322;10.116;2022-10-12T04:21:49;1.73;;;1.17;;
18808;SDS011;9532;54.322;10.116;2022-10-12T04:24:16;1.93;;;1.20;;
18808;SDS011;9532;54.322;10.116;2022-10-12T04:26:43;1.80;;;1.17;;
18808;SDS011;9532;54.322;10.116;2022-10-12T04:29:10;2.70;;;1.00;;
18808;SDS011;9532;54.322;10.116;2022-10-12T04:31:40;1.77;;;1.30;;
18808;SDS011;9532;54.322;10.116;2022-10-12T04:34:07;2.27;;;1.27;;
18808;SDS011;9532;54.322;10.116;2022-10-12T04:36:35;2.60;;;1.20;;
18808;SDS011;9532;54.322;10.116;2022-10-12T04:39:03;1.80;;;1.20;;
18808;SDS011;9532;54.322;10.116;2022-10-12T04:41:30;1.70;;;1.10;;
18808;SDS011;9532;54.322;10.116;2022-10-12T04:43:57;3.00;;;1.30;;
18808;SDS011;9532;54.322;10.116;2022-10-12T04:46:24;2.73;;;1.50;;
18808;SDS011;9532;54.322;10.116;2022-10-12T04:48:53;2.37;;;1.20;;
18808;SDS011;9532;54.322;10.116;2022-10-12T04:51:20;2.27;;;1.40;;
18808;SDS011;9532;54.322;10.116;2022-10-12T04:53:47;2.27;;;1.30;;
18808;SDS011;9532;54.322;10.116;2022-10-12T04:56:14;3.03;;;1.30;;
18808;SDS011;9532;54.322;10.116;2022-10-12T04:58:40;2.00;;;1.23;;
18808;SDS011;9532;54.322;10.116;2022-10-12T05:01:08;2.57;;;1.30;;
18808;SDS011;9532;54.322;10.116;2022-10-12T05:03:35;3.13;;;1.33;;
18808;SDS011;9532;54.322;10.116;2022-10-12T05:06:04;3.10;;;1.30;;
18808;SDS011;9532;54.322;10.116;2022-10-12T05:08:32;2.17;;;1.50;;
18808;SDS011;9532;54.322;10.116;2022-10-12T05:10:59;2.80;;;1.33;;
18808;SDS011;9532;54.322;10.116;2022-10-12T05:13:26;2.47;;;1.30;;
18808;SDS011;9532;54.322;10.116;2022-10-12T05:15:53;4.37;;;1.67;;
18808;SDS011;9532;54.322;10.116;2022-10-12T05:18:20;2.33;;;1.37;;
18808;SDS011;9532;54.322;10.116;2022-10-12T05:20:47;2.00;;;1.20;;
18808;SDS011;9532;54.322;10.116;2022-10-12T05:23:16;2.50;;;1.30;;
18808;SDS011;9532;54.322;10.116;2022-10-12T05:25:43;1.73;;;1.20;;
18808;SDS011;9532;54.322;10.116;2022-10-12T05:28:10;1.93;;;1.20;;
18808;SDS011;9532;54.322;10.116;2022-10-12T05:30:37;2.57;;;1.10;;
18808;SDS011;9532;54.322;10.116;2022-10-12T05:33:04;2.90;;;1.23;;
18808;SDS011;9532;54.322;10.116;2022-10-12T05:35:31;2.83;;;1.60;;
18808;SDS011;9532;54.322;10.116;2022-10-12T05:37:58;2.33;;;1.20;;
18808;SDS011;9532;54.322;10.116;2022-10-12T05:40:27;2.33;;;1.40;;
18808;SDS011;9532;54.322;10.116;2022-10-12T05:42:54;1.70;;;1.30;;
18808;SDS011;9532;54.322;10.116;2022-10-12T05:45:21;1.97;;;1.23;;
18808;SDS011;9532;54.322;10.116;2022-10-12T05:47:48;2.20;;;1.30;;
18808;SDS011;9532;54.322;10.116;2022-10-12T05:50:15;2.30;;;1.23;;
18808;SDS011;9532;54.322;10.116;2022-10-12T05:52:43;3.07;;;1.67;;
18808;SDS011;9532;54.322;10.116;2022-10-12T05:55:10;3.07;;;1.40;;
18808;SDS011;9532;54.322;10.116;2022-10-12T05:57:38;1.93;;;1.27;;
18808;SDS011;9532;54.322;10.116;2022-10-12T06:00:06;2.53;;;1.50;;
18808;SDS011;9532;54.322;10.116;2022-10-12T06:02:34;2.27;;;1.17;;
18808;SDS011;9532;54.322;10.116;2022-10-12T06:05:01;2.70;;;1.57;;
18808;SDS011;9532;54.322;10.116;2022-10-12T06:07:30;2.47;;;1.13;;
18808;SDS011;9532;54.322;10.116;2022-10-12T06:09:57;3.43;;;1.60;;
18808;SDS011;9532;54.322;10.116;2022-10-12T06:12:24;3.97;;;1.50;;
18808;SDS011;9532;54.322;10.116;2022-10-12T06:14:54;2.00;;;1.17;;
18808;SDS011;9532;54.322;10.116;2022-10-12T06:17:21;1.97;;;1.20;;
18808;SDS011;9532;54.322;10.116;2022-10-12T06:19:48;2.23;;;1.20;;
18808;SDS011;9532;54.322;10.116;2022-10-12T06:22:15;3.00;;;1.40;;
18808;SDS011;9532;54.322;10.116;2022-10-12T06:24:42;3.50;;;1.30;;
18808;SDS011;9532;54.322;10.116;2022-10-12T06:27:09;2.43;;;1.30;;
18808;SDS011;9532;54.322;10.116;2022-10-12T06:29:37;4.80;;;1.60;;
18808;SDS011;9532;54.322;10.116;2022-10-12T06:32:05;5.57;;;1.43;;
18808;SDS011;9532;54.322;10.116;2022-10-12T06:34:32;2.00;;;1.20;;
18808;SDS011;9532;54.322;10.116;2022-10-12T06:36:59;1.87;;;1.10;;
18808;SDS011;9532;54.322;10.116;2022-10-12T06:39:26;2.53;;;1.30;;
18808;SDS011;9532;54.322;10.116;2022-10-12T06:41:52;1.70;;;1.40;;
18808;SDS011;9532;54.322;10.116;2022-10-12T06:44:19;1.93;;;1.30;;
18808;SDS011;9532;54.322;10.116;2022-10-12T06:46:46;2.27;;;1.27;;
18808;SDS011;9532;54.322;10.116;2022-10-12T06:49:16;2.50;;;1.63;;
18808;SDS011;9532;54.322;10.116;2022-10-12T06:51:43;2.53;;;1.40;;
18808;SDS011;9532;54.322;10.116;2022-10-12T06:54:10;2.80;;;1.40;;
18808;SDS011;9532;54.322;10.116;2022-10-12T06:56:37;3.07;;;1.20;;
18808;SDS011;9532;54.322;10.116;2022-10-12T06:59:04;2.50;;;1.20;;
18808;SDS011;9532;54.322;10.116;2022-10-12T07:01:31;3.27;;;1.33;;
18808;SDS011;9532;54.322;10.116;2022-10-12T07:03:58;2.50;;;1.30;;
18808;SDS011;9532;54.322;10.116;2022-10-12T07:06:27;2.90;;;1.23;;
18808;SDS011;9532;54.322;10.116;2022-10-12T07:08:54;2.50;;;1.27;;
18808;SDS011;9532;54.322;10.116;2022-10-12T07:11:21;6.20;;;1.40;;
18808;SDS011;9532;54.322;10.116;2022-10-12T07:13:49;2.77;;;1.10;;
18808;SDS011;9532;54.322;10.116;2022-10-12T07:16:16;2.90;;;1.33;;
18808;SDS011;9532;54.322;10.116;2022-10-12T07:18:43;1.67;;;1.07;;
18808;SDS011;9532;54.322;10.116;2022-10-12T07:21:10;2.23;;;1.30;;
18808;SDS011;9532;54.322;10.116;2022-10-12T07:23:38;2.17;;;1.40;;
18808;SDS011;9532;54.322;10.116;2022-10-12T07:26:05;2.13;;;1.40;;
18808;SDS011;9532;54.322;10.116;2022-10-12T07:28:32;2.23;;;1.20;;
18808;SDS011;9532;54.322;10.116;2022-10-12T07:31:00;2.20;;;1.27;;
18808;SDS011;9532;54.322;10.116;2022-10-12T07:33:31;3.70;;;1.60;;
18808;SDS011;9532;54.322;10.116;2022-10-12T07:35:59;5.83;;;1.50;;
18808;SDS011;9532;54.322;10.116;2022-10-12T07:38:27;3.37;;;1.80;;
18808;SDS011;9532;54.322;10.116;2022-10-12T07:40:58;8.17;;;1.60;;
18808;SDS011;9532;54.322;10.116;2022-10-12T07:43:26;5.20;;;1.40;;
18808;SDS011;9532;54.322;10.116;2022-10-12T07:45:53;4.80;;;1.40;;
18808;SDS011;9532;54.322;10.116;2022-10-12T07:48:20;10.70;;;1.90;;
18808;SDS011;9532;54.322;10.116;2022-10-12T07:50:48;6.30;;;1.93;;
18808;SDS011;9532;54.322;10.116;2022-10-12T07:53:15;8.03;;;1.77;;
18808;SDS011;9532;54.322;10.116;2022-10-12T07:55:42;7.00;;;1.80;;
18808;SDS011;9532;54.322;10.116;2022-10-12T07:58:11;5.83;;;1.60;;
18808;SDS011;9532;54.322;10.116;2022-10-12T08:00:39;7.60;;;2.27;;
18808;SDS011;9532;54.322;10.116;2022-10-12T08:03:06;7.73;;;1.63;;
18808;SDS011;9532;54.322;10.116;2022-10-12T08:05:33;3.83;;;1.67;;
18808;SDS011;9532;54.322;10.116;2022-10-12T08:08:02;6.03;;;1.73;;
18808;SDS011;9532;54.322;10.116;2022-10-12T08:10:32;9.90;;;1.90;;
18808;SDS011;9532;54.322;10.116;2022-10-12T08:13:00;6.37;;;1.70;;
18808;SDS011;9532;54.322;10.116;2022-10-12T08:15:29;8.67;;;2.00;;
18808;SDS011;9532;54.322;10.116;2022-10-12T08:17:56;4.93;;;1.40;;
18808;SDS011;9532;54.322;10.116;2022-10-12T08:20:23;8.47;;;1.90;;
18808;SDS011;9532;54.322;10.116;2022-10-12T08:22:50;6.63;;;1.83;;
18808;SDS011;9532;54.322;10.116;2022-10-12T08:25:17;6.27;;;1.83;;
18808;SDS011;9532;54.322;10.116;2022-10-12T08:27:44;5.77;;;1.90;;
18808;SDS011;9532;54.322;10.116;2022-10-12T08:30:12;10.93;;;1.90;;
18808;SDS011;9532;54.322;10.116;2022-10-12T08:32:41;8.03;;;1.80;;
18808;SDS011;9532;54.322;10.116;2022-10-12T08:35:08;8.10;;;1.67;;
18808;SDS011;9532;54.322;10.116;2022-10-12T08:37:35;7.00;;;2.00;;
18808;SDS011;9532;54.322;10.116;2022-10-12T08:40:02;7.60;;;2.07;;
18808;SDS011;9532;54.322;10.116;2022-10-12T08:42:33;3.60;;;1.93;;
18808;SDS011;9532;54.322;10.116;2022-10-12T08:45:16;9.07;;;2.10;;
18808;SDS011;9532;54.322;10.116;2022-10-12T08:47:54;6.87;;;2.00;;
18808;SDS011;9532;54.322;10.116;2022-10-12T08:50:26;4.63;;;1.77;;
18808;SDS011;9532;54.322;10.116;2022-10-12T08:53:00;3.87;;;1.60;;
18808;SDS011;9532;54.322;10.116;2022-10-12T11:28:59;35.80;;;8.67;;
18808;SDS011;9532;54.322;10.116;2022-10-12T11:31:27;28.00;;;7.30;;
18808;SDS011;9532;54.322;10.116;2022-10-12T11:33:58;29.57;;;7.23;;
18808;SDS011;9532;54.322;10.116;2022-10-12T11:36:29;26.27;;;7.20;;
18808;SDS011;9532;54.322;10.116;2022-10-12T11:38:58;31.90;;;8.07;;
18808;SDS011;9532;54.322;10.116;2022-10-12T11:41:29;26.80;;;6.43;;
18808;SDS011;9532;54.322;10.116;2022-10-12T11:44:05;27.90;;;6.50;;
18808;SDS011;9532;54.322;10.116;2022-10-12T11:46:39;28.10;;;5.83;;
18808;SDS011;9532;54.322;10.116;2022-10-12T11:49:12;24.20;;;5.20;;
18808;SDS011;9532;54.322;10.116;2022-10-12T11:51:43;25.87;;;5.37;;
18808;SDS011;9532;54.322;10.116;2022-10-12T11:54:16;18.33;;;4.13;;
18808;SDS011;9532;54.322;10.116;2022-10-12T11:56:52;22.77;;;4.83;;
18808;SDS011;9532;54.322;10.116;2022-10-12T11:59:24;18.80;;;4.53;;
18808;SDS011;9532;54.322;10.116;2022-10-12T12:01:59;21.40;;;4.90;;
18808;SDS011;9532;54.322;10.116;2022-10-12T12:04:36;22.00;;;3.97;;
18808;SDS011;9532;54.322;10.116;2022-10-12T12:13:29;20.40;;;4.03;;
18808;SDS011;9532;54.322;10.116;2022-10-12T12:19:08;12.37;;;3.40;;
18808;SDS011;9532;54.322;10.116;2022-10-12T12:24:54;12.37;;;3.33;;
18808;SDS011;9532;54.322;10.116;2022-10-12T12:27:33;12.57;;;2.80;;
18808;SDS011;9532;54.322;10.116;2022-10-12T12:30:18;9.20;;;2.47;;
18808;SDS011;9532;54.322;10.116;2022-10-12T12:32:51;11.30;;;2.87;;
18808;SDS011;9532;54.322;10.116;2022-10-12T12:35:23;13.70;;;2.47;;
18808;SDS011;9532;54.322;10.116;2022-10-12T12:38:00;14.70;;;2.30;;
18808;SDS011;9532;54.322;10.116;2022-10-12T12:40:30;10.90;;;2.67;;
18808;SDS011;9532;54.322;10.116;2022-10-12T12:45:52;11.57;;;2.20;;
18808;SDS011;9532;54.322;10.116;2022-10-12T12:51:23;13.27;;;2.20;;
18808;SDS011;9532;54.322;10.116;2022-10-12T12:54:00;10.70;;;1.73;;
18808;SDS011;9532;54.322;10.116;2022-10-12T12:56:32;9.27;;;1.97;;
18808;SDS011;9532;54.322;10.116;2022-10-12T12:59:27;14.90;;;2.07;;
18808;SDS011;9532;54.322;10.116;2022-10-12T13:11:57;5.47;;;1.70;;
18808;SDS011;9532;54.322;10.116;2022-10-12T13:15:00;3.90;;;1.30;;
18808;SDS011;9532;54.322;10.116;2022-10-12T13:17:48;7.07;;;1.77;;
18808;SDS011;9532;54.322;10.116;2022-10-12T13:20:28;5.07;;;1.60;;
18808;SDS011;9532;54.322;10.116;2022-10-12T13:22:58;9.87;;;1.80;;
18808;SDS011;9532;54.322;10.116;2022-10-12T13:25:30;8.73;;;1.53;;
18808;SDS011;9532;54.322;10.116;2022-10-12T13:28:01;6.47;;;1.70;;
18808;SDS011;9532;54.322;10.116;2022-10-12T13:30:32;5.53;;;1.40;;
18808;SDS011;9532;54.322;10.116;2022-10-12T13:33:10;5.07;;;1.70;;
18808;SDS011;9532;54.322;10.116;2022-10-12T13:35:47;3.53;;;1.40;;
18808;SDS011;9532;54.322;10.116;2022-10-12T13:38:21;3.93;;;1.60;;
18808;SDS011;9532;54.322;10.116;2022-10-12T13:40:54;3.50;;;1.40;;
18808;SDS011;9532;54.322;10.116;2022-10-12T13:43:30;3.37;;;1.23;;
18808;SDS011;9532;54.322;10.116;2022-10-12T13:49:01;4.20;;;1.43;;
18808;SDS011;9532;54.322;10.116;2022-10-12T13:51:29;4.67;;;1.47;;
18808;SDS011;9532;54.322;10.116;2022-10-12T13:53:56;4.10;;;1.47;;
18808;SDS011;9532;54.322;10.116;2022-10-12T13:56:26;4.53;;;1.30;;
18808;SDS011;9532;54.322;10.116;2022-10-12T13:58:56;9.27;;;1.63;;
18808;SDS011;9532;54.322;10.116;2022-10-12T14:01:25;2.70;;;1.13;;
18808;SDS011;9532;54.322;10.116;2022-10-12T14:04:00;6.73;;;1.40;;
18808;SDS011;9532;54.322;10.116;2022-10-12T14:06:29;6.50;;;1.40;;
18808;SDS011;9532;54.322;10.116;2022-10-12T14:08:58;4.93;;;1.33;;
18808;SDS011;9532;54.322;10.116;2022-10-12T14:11:33;10.87;;;1.60;;
18808;SDS011;9532;54.322;10.116;2022-10-12T14:14:01;17.57;;;1.83;;
18808;SDS011;9532;54.322;10.116;2022-10-12T14:16:29;10.80;;;1.63;;
18808;SDS011;9532;54.322;10.116;2022-10-12T14:18:58;13.77;;;1.90;;
18808;SDS011;9532;54.322;10.116;2022-10-12T14:21:43;12.77;;;1.57;;
18808;SDS011;9532;54.322;10.116;2022-10-12T14:24:14;15.80;;;1.70;;
18808;SDS011;9532;54.322;10.116;2022-10-12T14:26:50;9.70;;;1.60;;
18808;SDS011;9532;54.322;10.116;2022-10-12T14:35:03;7.63;;;1.90;;
18808;SDS011;9532;54.322;10.116;2022-10-12T14:37:39;8.67;;;1.77;;
18808;SDS011;9532;54.322;10.116;2022-10-12T14:40:24;7.40;;;2.00;;
18808;SDS011;9532;54.322;10.116;2022-10-12T14:42:58;5.03;;;1.90;;
18808;SDS011;9532;54.322;10.116;2022-10-12T14:45:29;7.07;;;1.60;;
18808;SDS011;9532;54.322;10.116;2022-10-12T14:47:57;4.10;;;2.00;;
18808;SDS011;9532;54.322;10.116;2022-10-12T14:50:26;4.73;;;1.80;;
18808;SDS011;9532;54.322;10.116;2022-10-12T14:52:55;5.93;;;1.80;;
18808;SDS011;9532;54.322;10.116;2022-10-12T14:55:25;9.53;;;2.23;;
18808;SDS011;9532;54.322;10.116;2022-10-12T14:57:55;7.17;;;1.83;;
18808;SDS011;9532;54.322;10.116;2022-10-12T15:00:24;6.87;;;2.00;;
18808;SDS011;9532;54.322;10.116;2022-10-12T15:02:53;4.57;;;1.90;;
18808;SDS011;9532;54.322;10.116;2022-10-12T15:05:21;11.30;;;2.60;;
18808;SDS011;9532;54.322;10.116;2022-10-12T15:07:50;6.43;;;2.40;;
18808;SDS011;9532;54.322;10.116;2022-10-12T15:10:18;6.33;;;2.20;;
18808;SDS011;9532;54.322;10.116;2022-10-12T15:12:47;7.40;;;2.00;;
18808;SDS011;9532;54.322;10.116;2022-10-12T15:18:12;9.53;;;2.23;;
18808;SDS011;9532;54.322;10.116;2022-10-12T15:20:40;5.33;;;2.00;;
18808;SDS011;9532;54.322;10.116;2022-10-12T15:23:08;7.20;;;1.90;;
18808;SDS011;9532;54.322;10.116;2022-10-12T15:25:39;6.20;;;1.90;;
18808;SDS011;9532;54.322;10.116;2022-10-12T15:28:10;5.63;;;1.80;;
18808;SDS011;9532;54.322;10.116;2022-10-12T15:30:39;5.87;;;1.70;;
18808;SDS011;9532;54.322;10.116;2022-10-12T15:33:06;9.20;;;2.30;;
18808;SDS011;9532;54.322;10.116;2022-10-12T15:35:35;4.47;;;1.93;;
18808;SDS011;9532;54.322;10.116;2022-10-12T15:38:02;6.93;;;1.80;;
18808;SDS011;9532;54.322;10.116;2022-10-12T15:40:30;6.80;;;1.63;;
18808;SDS011;9532;54.322;10.116;2022-10-12T15:42:58;4.90;;;1.90;;
18808;SDS011;9532;54.322;10.116;2022-10-12T15:45:26;5.70;;;1.83;;
18808;SDS011;9532;54.322;10.116;2022-10-12T15:47:58;4.77;;;1.47;;
18808;SDS011;9532;54.322;10.116;2022-10-12T15:50:26;4.13;;;1.57;;
18808;SDS011;9532;54.322;10.116;2022-10-12T15:52:55;5.40;;;1.70;;
18808;SDS011;9532;54.322;10.116;2022-10-12T15:55:23;9.83;;;2.07;;
18808;SDS011;9532;54.322;10.116;2022-10-12T15:57:52;6.20;;;1.83;;
18808;SDS011;9532;54.322;10.116;2022-10-12T16:00:20;5.63;;;1.63;;
18808;SDS011;9532;54.322;10.116;2022-10-12T16:02:51;9.67;;;1.83;;
18808;SDS011;9532;54.322;10.116;2022-10-12T16:05:21;6.73;;;1.53;;
18808;SDS011;9532;54.322;10.116;2022-10-12T16:07:50;9.73;;;1.73;;
18808;SDS011;9532;54.322;10.116;2022-10-12T16:10:19;7.23;;;1.80;;
18808;SDS011;9532;54.322;10.116;2022-10-12T16:12:48;9.43;;;2.27;;
18808;SDS011;9532;54.322;10.116;2022-10-12T16:15:18;7.83;;;1.77;;
18808;SDS011;9532;54.322;10.116;2022-10-12T16:17:47;9.73;;;1.87;;
18808;SDS011;9532;54.322;10.116;2022-10-12T16:20:15;8.93;;;2.00;;
18808;SDS011;9532;54.322;10.116;2022-10-12T16:22:44;12.97;;;2.47;;
18808;SDS011;9532;54.322;10.116;2022-10-12T16:25:11;9.33;;;2.17;;
18808;SDS011;9532;54.322;10.116;2022-10-12T16:27:41;10.67;;;1.90;;
18808;SDS011;9532;54.322;10.116;2022-10-12T16:30:08;13.67;;;2.37;;
18808;SDS011;9532;54.322;10.116;2022-10-12T16:32:36;10.37;;;2.23;;
18808;SDS011;9532;54.322;10.116;2022-10-12T16:35:04;8.57;;;2.87;;
18808;SDS011;9532;54.322;10.116;2022-10-12T16:37:32;14.83;;;2.70;;
18808;SDS011;9532;54.322;10.116;2022-10-12T16:40:02;13.93;;;2.87;;
18808;SDS011;9532;54.322;10.116;2022-10-12T16:42:30;9.77;;;2.73;;
18808;SDS011;9532;54.322;10.116;2022-10-12T16:44:58;13.20;;;3.10;;
18808;SDS011;9532;54.322;10.116;2022-10-12T16:47:26;10.37;;;2.67;;
18808;SDS011;9532;54.322;10.116;2022-10-12T16:49:53;9.73;;;2.70;;
18808;SDS011;9532;54.322;10.116;2022-10-12T16:52:21;16.07;;;3.10;;
18808;SDS011;9532;54.322;10.116;2022-10-12T16:54:49;10.40;;;2.70;;
18808;SDS011;9532;54.322;10.116;2022-10-12T16:57:17;16.40;;;3.50;;
18808;SDS011;9532;54.322;10.116;2022-10-12T16:59:44;13.23;;;3.07;;
18808;SDS011;9532;54.322;10.116;2022-10-12T17:02:12;14.50;;;3.47;;
18808;SDS011;9532;54.322;10.116;2022-10-12T17:04:40;13.17;;;2.37;;
18808;SDS011;9532;54.322;10.116;2022-10-12T17:07:07;12.87;;;3.43;;
18808;SDS011;9532;54.322;10.116;2022-10-12T17:09:35;9.93;;;2.70;;
18808;SDS011;9532;54.322;10.116;2022-10-12T17:12:02;11.73;;;2.87;;
18808;SDS011;9532;54.322;10.116;2022-10-12T17:14:31;11.20;;;2.50;;
18808;SDS011;9532;54.322;10.116;2022-10-12T17:16:58;8.27;;;2.47;;
18808;SDS011;9532;54.322;10.116;2022-10-12T17:19:27;10.07;;;2.80;;
18808;SDS011;9532;54.322;10.116;2022-10-12T17:21:58;8.43;;;2.83;;
18808;SDS011;9532;54.322;10.116;2022-10-12T17:24:28;12.80;;;3.07;;
18808;SDS011;9532;54.322;10.116;2022-10-12T17:26:57;10.07;;;2.47;;
18808;SDS011;9532;54.322;10.116;2022-10-12T17:29:25;12.97;;;2.90;;
18808;SDS011;9532;54.322;10.116;2022-10-12T17:31:55;20.50;;;2.50;;
18808;SDS011;9532;54.322;10.116;2022-10-12T17:34:24;14.93;;;2.80;;
18808;SDS011;9532;54.322;10.116;2022-10-12T17:36:53;14.50;;;2.73;;
18808;SDS011;9532;54.322;10.116;2022-10-12T17:39:21;12.43;;;2.67;;
18808;SDS011;9532;54.322;10.116;2022-10-12T17:41:49;11.30;;;3.23;;
18808;SDS011;9532;54.322;10.116;2022-10-12T17:44:16;12.93;;;2.63;;
18808;SDS011;9532;54.322;10.116;2022-10-12T17:46:44;16.17;;;2.40;;
18808;SDS011;9532;54.322;10.116;2022-10-12T17:49:14;9.50;;;2.30;;
18808;SDS011;9532;54.322;10.116;2022-10-12T17:51:43;9.83;;;2.50;;
18808;SDS011;9532;54.322;10.116;2022-10-12T17:54:12;8.63;;;2.50;;
18808;SDS011;9532;54.322;10.116;2022-10-12T17:56:39;13.07;;;2.70;;
18808;SDS011;9532;54.322;10.116;2022-10-12T17:59:07;13.80;;;2.90;;
18808;SDS011;9532;54.322;10.116;2022-10-12T18:01:34;8.33;;;2.20;;
18808;SDS011;9532;54.322;10.116;2022-10-12T18:04:01;11.53;;;2.57;;
18808;SDS011;9532;54.322;10.116;2022-10-12T18:06:31;10.37;;;3.00;;
18808;SDS011;9532;54.322;10.116;2022-10-12T18:08:59;9.90;;;2.50;;
18808;SDS011;9532;54.322;10.116;2022-10-12T18:11:28;10.80;;;2.47;;
18808;SDS011;9532;54.322;10.116;2022-10-12T18:13:55;12.70;;;3.00;;
18808;SDS011;9532;54.322;10.116;2022-10-12T18:16:23;18.03;;;2.37;;
18808;SDS011;9532;54.322;10.116;2022-10-12T18:18:52;15.00;;;2.80;;